Terminal Aerodrome Forecast
Issued by NWS

Home | Current Version | Previous Version | Text Only | Print | Product List | Glossary On
Versions: 1 2 3 4 5 6 7 8 9 10 11 12 13 14 15 16 17 18 19 20 21 22 23
000
FTUS45 KBOI 080617 AAB
TAFMYL
TAF AMD
KMYL 080617Z 0806/0906 VRB03KT 4SM BR BKN010 OVC100
     FM081700 14005KT P6SM VCSH SCT015 OVC050
     FM082200 17003KT 1/2SM SN OVC007=

USA.gov is the U.S. government's official web portal to all federal, state and local government web resources and services.